»·PEaware :: N45XS KLAX-KSAN

N45XS :: KLAX-KSAN

FLIGHT INFORMATION

Flight Status: Arrived
Operator: Privately registered:
United States
More flights under this callsign
Pilot: Maurice C. (12314)
Aircraft: BEECH AIRCRAFT BARON
(BE58)
More flights by this aircraft type
Origin: KLAX Los Angeles Intl
United States
Destination: KSAN San Diego Intl-Lindbergh
United States
More flights between these airports :: More routes between these airports
Route: +
File this flight plan on PilotEdge
Remarks:
Altitude:
(Current/Filed)
7,500ft
Speed:
(Current/Filed)
0kts
Departed: 11-Oct-17 09:03 AM
Arrived: 11-Oct-17 09:45 AM
Distance/Time
Traveled:
95nm/0:42
Distance/Time
To Go:
Arrived

Flight Plot

Page will automatically refresh every two minutes.


Map Options




Map Legend


Flown Route
Filed Route
Departure Airport
Arrival Airport
Navaid (VOR, NDB)
Fix

Horizontal Profiles

Position Reports

Time Latitude Longitude Heading Altitude Ground
Speed
11-Oct-17 08:41 33.932911 -118.399818 78 108ft 0kts
11-Oct-17 08:42 33.932911 -118.399818 78 108ft 0kts
11-Oct-17 08:44 33.932911 -118.399818 78 108ft 0kts
11-Oct-17 08:44 33.932911 -118.399818 78 108ft 0kts
11-Oct-17 08:45 33.932911 -118.399818 78 108ft 0kts
11-Oct-17 08:46 33.932911 -118.399818 78 108ft 0kts
11-Oct-17 08:47 33.932911 -118.399818 78 108ft 0kts
11-Oct-17 08:48 33.932911 -118.399818 78 108ft 0kts
11-Oct-17 08:50 33.932911 -118.399818 78 108ft 0kts
11-Oct-17 08:51 33.932911 -118.399818 78 108ft 0kts
11-Oct-17 08:52 33.932911 -118.399818 78 108ft 0kts
11-Oct-17 08:57 33.932903 -118.399811 78 108ft 0kts
11-Oct-17 08:58 33.932903 -118.399811 78 108ft 0kts
11-Oct-17 08:59 33.932903 -118.399811 78 108ft 0kts
11-Oct-17 09:00 33.932903 -118.399811 78 108ft 0kts
11-Oct-17 09:01 33.932903 -118.399811 78 108ft 0kts
11-Oct-17 09:02 33.933954 -118.398109 8 108ft 10kts
11-Oct-17 09:03 33.935235 -118.391408 82 108ft 32kts
11-Oct-17 09:04 33.936258 -118.382976 70 108ft 8kts
11-Oct-17 09:05 33.936422 -118.382780 11 108ft 0kts
11-Oct-17 09:06 33.936422 -118.382780 11 108ft 0kts
11-Oct-17 09:07 33.936313 -118.393121 262 162ft 111kts
11-Oct-17 09:08 33.929855 -118.432165 251 1914ft 109kts
11-Oct-17 09:09 33.923392 -118.465430 248 3807ft 101kts
11-Oct-17 09:10 33.891738 -118.486713 173 3517ft 170kts
11-Oct-17 09:11 33.843329 -118.478369 171 3004ft 173kts
11-Oct-17 09:12 33.796941 -118.470292 171 3015ft 168kts
11-Oct-17 09:13 33.753060 -118.460419 141 3516ft 154kts
11-Oct-17 09:14 33.726211 -118.421368 131 4160ft 150kts
11-Oct-17 09:15 33.690287 -118.394539 151 4524ft 160kts
11-Oct-17 09:16 33.652598 -118.370168 151 5132ft 148kts
11-Oct-17 09:17 33.616890 -118.347054 151 5926ft 157kts
11-Oct-17 09:18 33.578473 -118.317035 136 6772ft 171kts
11-Oct-17 09:19 33.543780 -118.276885 133 7479ft 179kts
11-Oct-17 09:20 33.508541 -118.229751 131 7494ft 196kts
11-Oct-17 09:21 33.472111 -118.180628 131 7491ft 198kts
11-Oct-17 09:22 33.435607 -118.131411 131 7508ft 198kts
11-Oct-17 09:23 33.398966 -118.081995 131 7509ft 198kts
11-Oct-17 09:24 33.362369 -118.032632 131 7509ft 198kts
11-Oct-17 09:25 33.325891 -117.983418 131 7509ft 198kts
11-Oct-17 09:26 33.289241 -117.933960 131 7509ft 198kts
11-Oct-17 09:27 33.252714 -117.884673 131 7509ft 198kts
11-Oct-17 09:28 33.216181 -117.835363 131 7509ft 198kts
11-Oct-17 09:29 33.179885 -117.786361 131 7509ft 198kts
11-Oct-17 09:30 33.145430 -117.739916 131 7501ft 175kts
11-Oct-17 09:31 33.112465 -117.695369 131 6973ft 179kts
11-Oct-17 09:32 33.079674 -117.651056 131 6172ft 178kts
11-Oct-17 09:33 33.049360 -117.610163 131 5457ft 117kts
11-Oct-17 09:34 33.036611 -117.576804 94 5399ft 119kts
11-Oct-17 09:35 33.034475 -117.535465 90 5156ft 129kts
11-Oct-17 09:36 33.039048 -117.488875 82 4469ft 151kts
11-Oct-17 09:37 33.028796 -117.441088 118 3717ft 156kts
11-Oct-17 09:38 33.007640 -117.396214 118 3194ft 145kts
11-Oct-17 09:39 32.990906 -117.360763 118 3479ft 109kts
11-Oct-17 09:40 32.968127 -117.338650 151 3509ft 110kts
11-Oct-17 09:41 32.937909 -117.318888 151 3524ft 142kts
11-Oct-17 09:42 32.900547 -117.294532 151 3515ft 159kts
11-Oct-17 09:43 32.863128 -117.270156 151 3501ft 161kts
11-Oct-17 09:44 32.823774 -117.244520 151 3504ft 162kts
11-Oct-17 09:45 32.783938 -117.218565 151 3247ft 171kts
11-Oct-17 09:46 32.751947 -117.196878 135 1995ft 110kts
11-Oct-17 09:47 32.740881 -117.168609 111 904ft 83kts
11-Oct-17 09:48 32.728296 -117.166190 275 540ft 107kts
11-Oct-17 09:49 32.731773 -117.184717 190 16ft 0kts
11-Oct-17 09:50 32.731773 -117.184717 190 16ft 0kts
11-Oct-17 09:51 32.731773 -117.184717 190 16ft 0kts
11-Oct-17 09:52 32.732673 -117.190394 294 18ft 29kts
11-Oct-17 09:53 32.731989 -117.195455 254 19ft 14kts
11-Oct-17 09:54 32.731878 -117.195802 247 20ft 0kts

Navigation Log

Ident Type
1. KLAX Airport
2. KSAN Airport